• Join FlightAware (Why Join?)
  • Login
  • US Flag 
06:26AM EDT


 

Airport Tracker/Info


-or-


 

Live Flight TrackerFlight Track Log ✈ N7988K ✈ 20-May-2012 ✈ KFLO - KLWB

Flight Track Log - Related Links

Times and Time Zones

All times are in EDT time to prevent confusion due to time zone crossing. See the N7988K flight status page for this flight to view local times or setup timezone preferences in your user account.

Time Position Orientation Groundspeed Altitude Reporting Facility
EDT Latitude Longitude Course Direction KTS MPH feet Rate Location/Type
05:33PM 34.3735 -79.7550 352° North  Level FlightAware Approximate
05:34PM 34.4149 -79.7624 352° North  Level FlightAware Approximate
05:35PM 34.4563 -79.7698 352° North  Level FlightAware Approximate
05:36PM 34.4973 -79.7743 352° North  Level FlightAware Approximate
05:37PM 34.5384 -79.7840 352° North  Level FlightAware Approximate
05:38PM 34.5798 -79.7914 352° North  Level FlightAware Approximate
05:39PM 34.6213 -79.7988 352° North  Level FlightAware Approximate
05:40PM 34.6627 -79.8062 352° North  Level FlightAware Approximate
05:41PM 34.7041 -79.8136 352° North  Level FlightAware Approximate
05:42PM 34.7456 -79.8210 352° North  Level FlightAware Approximate
05:43PM 34.7872 -79.8174 352° North  Level FlightAware Approximate
05:44PM 34.8287 -79.8250 351° North  Level FlightAware Approximate
05:45PM 34.8701 -79.8326 351° North  Level FlightAware Approximate
05:46PM 34.9115 -79.8401 351° North  Level FlightAware Approximate
05:47PM 34.9529 -79.8477 351° North  Level FlightAware Approximate
05:48PM 34.9943 -79.8553 351° North  Level FlightAware Approximate
05:49PM 35.0358 -79.8630 351° North  Level FlightAware Approximate
05:50PM 35.0770 -79.8717 351° North  Level FlightAware Approximate
05:51PM 35.1184 -79.8793 351° North  Level FlightAware Approximate
05:52PM 35.1599 -79.8869 351° North  Level FlightAware Approximate
05:53PM 35.2013 -79.8946 351° North  Level FlightAware Approximate
05:54PM 35.2427 -79.9022 351° North  Level FlightAware Approximate
05:55PM 35.2841 -79.9098 351° North  Level FlightAware Approximate
05:56PM 35.3254 -79.9183 351° North  Level FlightAware Approximate
05:57PM 35.3668 -79.9259 351° North  Level FlightAware Approximate
05:58PM 35.4083 -79.9336 351° North  Level FlightAware Approximate
05:59PM 35.4497 -79.9413 351° North  Level FlightAware Approximate
06:00PM 35.4911 -79.9489 351° North  Level FlightAware Approximate
06:01PM 35.5325 -79.9566 351° North  Level FlightAware Approximate
06:02PM 35.5739 -79.9643 351° North  Level FlightAware Approximate
06:03PM 35.6154 -79.9720 351° North  Level FlightAware Approximate
06:04PM 35.6568 -79.9797 351° North  Level FlightAware Approximate
06:05PM 35.6982 -79.9874 351° North  Level FlightAware Approximate
06:06PM 35.7396 -79.9951 351° North  Level FlightAware Approximate
06:07PM 35.7810 -80.0028 351° North  Level FlightAware Approximate
06:08PM 35.8224 -80.0105 351° North  Level FlightAware Approximate
06:09PM 35.8638 -80.0183 351° North  Level FlightAware Approximate
06:10PM 35.9052 -80.0260 351° North  Level FlightAware Approximate
06:11PM 35.9466 -80.0338 351° North  Level FlightAware Approximate
06:12PM 35.9880 -80.0415 351° North  Level FlightAware Approximate
06:13PM 36.0295 -80.0493 351° North  Level FlightAware Approximate
06:14PM 36.0709 -80.0571 351° North  Level FlightAware Approximate
06:15PM 36.1123 -80.0649 351° North  Level FlightAware Approximate
06:16PM 36.1537 -80.0727 351° North  Level FlightAware Approximate
06:17PM 36.1951 -80.0805 351° North  Level FlightAware Approximate
06:18PM 36.2365 -80.0883 351° North  Level FlightAware Approximate
06:19PM 36.2779 -80.0961 351° North  Level FlightAware Approximate
06:20PM 36.3193 -80.1039 351° North  Level FlightAware Approximate
06:21PM 36.3607 -80.1118 351° North  Level FlightAware Approximate
06:22PM 36.4021 -80.1196 351° North  Level FlightAware Approximate
06:23PM 36.4435 -80.1275 351° North  Level FlightAware Approximate
06:24PM 36.4849 -80.1353 351° North  Level FlightAware Approximate
06:25PM 36.5263 -80.1432 351° North  Level FlightAware Approximate
06:26PM 36.5677 -80.1511 351° North  Level FlightAware Approximate
06:27PM 36.6091 -80.1590 351° North  Level FlightAware Approximate
06:28PM 36.6505 -80.1668 351° North  Level FlightAware Approximate
06:29PM 36.6919 -80.1748 351° North  Level FlightAware Approximate
06:30PM 36.7327 -80.1864 352° North  Level FlightAware Approximate
06:31PM 36.7741 -80.1941 352° North  Level FlightAware Approximate
06:32PM 36.8155 -80.2019 352° North  Level FlightAware Approximate
06:33PM 36.8570 -80.2097 352° North  Level FlightAware Approximate
06:34PM 36.8984 -80.2175 352° North  Level FlightAware Approximate
06:35PM 36.9398 -80.2253 352° North  Level FlightAware Approximate
06:36PM 36.9812 -80.2331 352° North  Level FlightAware Approximate
06:37PM 37.0226 -80.2409 352° North  Level FlightAware Approximate
06:38PM 37.0641 -80.2487 352° North  Level FlightAware Approximate
06:39PM 37.1055 -80.2565 353° North  Level FlightAware Approximate
06:40PM 37.1469 -80.2644 353° North  Level FlightAware Approximate
06:41PM 37.1883 -80.2722 354° North  Level FlightAware Approximate
06:42PM 37.2297 -80.2801 359° North  Level FlightAware Approximate
06:43PM 37.2711 -80.2879 160° South  Level FlightAware Approximate
06:44PM 37.3125 -80.2958 168° South  Level FlightAware Approximate
06:45PM 37.2556 -80.2808 353° North 157 181 9,100  Level Washington Center
06:48PM 37.3861 -80.3022 348° North 157 181 7,700 -480 Descending Washington Center
06:49PM 37.4253 -80.3125 349° North 157 181 7,200 -540 Descending Washington Center
06:50PM 37.4689 -80.3231 349° North 157 181 6,700 -540 Descending Washington Center
06:51PM 37.5100 -80.3333 346° North 157 181 6,200 -360 Descending Washington Center
06:52PM 37.5514 -80.3464 347° North 157 181 6,000 -120 Descending Washington Center
06:53PM 37.5986 -80.3597 349° North 157 181 6,000  Level Washington Center
06:54PM 37.6422 -80.3706 331° Northwest 162 186 6,100 -120 Climbing Washington Center
06:55PM 37.6828 -80.3992 320° Northwest 162 186 5,800 -480 Descending Washington Center
06:56PM 37.7228 -80.4411 315° West 179 206 5,200 -840 Descending Washington Center
06:57PM 37.7606 -80.4883 24° Northeast 190 219 4,200 -720 Descending Washington Center
06:58PM 37.7944 -80.4694 25° Northeast 154 177 3,800 -420 Descending Washington Center
06:59PM 37.8225 -80.4528 25° Northeast 112 129 3,400 -420 Descending Washington Center